Time;durP1;ratioP1;P1;durP2;ratioP2;P2;SDS_P1;SDS_P2;PMS_P1;PMS_P2;Temp;Humidity;BMP_temperature;BMP_pressure;BME280_temperature;BME280_humidity;BME280_pressure;Samples;Min_cycle;Max_cycle;Signal;HPM_P1;HPM_P2
2023/10/06 00:00:33;;;;;;;57.27;4.80;;;11.70;99.90;;;;;;5013567;28;20870;-53
2023/10/06 00:03:04;;;;;;;87.00;5.40;;;11.60;99.90;;;;;;5011223;28;20889;-53
2023/10/06 00:05:31;;;;;;;58.20;5.37;;;11.60;99.90;;;;;;5012655;28;20888;-53
2023/10/06 00:07:57;;;;;;;70.83;5.40;;;11.70;99.90;;;;;;5013342;28;21139;-52
2023/10/06 00:10:27;;;;;;;72.73;4.93;;;11.70;99.90;;;;;;5012435;28;20463;-53
2023/10/06 00:12:58;;;;;;;69.40;4.70;;;11.60;99.90;;;;;;5012796;28;20866;-53
2023/10/06 00:15:35;;;;;;;23.63;4.87;;;11.60;99.90;;;;;;5019791;28;20483;-54
2023/10/06 00:18:07;;;;;;;58.17;5.07;;;11.70;99.90;;;;;;5011506;28;20546;-52
2023/10/06 00:20:42;;;;;;;28.90;4.57;;;11.70;99.90;;;;;;5011951;28;20841;-52
2023/10/06 00:23:12;;;;;;;18.93;4.23;;;11.60;99.90;;;;;;5010939;28;20972;-53
2023/10/06 00:25:42;;;;;;;47.73;5.40;;;11.60;99.90;;;;;;5009923;28;20579;-52
2023/10/06 00:28:16;;;;;;;37.77;4.40;;;11.70;99.90;;;;;;5011086;28;20467;-52
2023/10/06 00:30:45;;;;;;;33.37;5.40;;;11.70;99.90;;;;;;5015295;28;20525;-53
2023/10/06 00:33:14;;;;;;;60.47;5.10;;;11.70;99.90;;;;;;5010558;28;20785;-53
2023/10/06 00:35:41;;;;;;;43.40;4.80;;;11.70;99.90;;;;;;5010222;28;20448;-53
2023/10/06 00:38:16;;;;;;;57.17;5.50;;;11.70;99.90;;;;;;5010782;28;20509;-53
2023/10/06 00:40:46;;;;;;;30.47;4.90;;;11.70;99.90;;;;;;5017386;28;20486;-52
2023/10/06 00:43:16;;;;;;;32.50;5.23;;;11.70;99.90;;;;;;5012056;28;20466;-54
2023/10/06 00:45:44;;;;;;;35.77;4.80;;;11.60;99.90;;;;;;5014780;28;20906;-53
2023/10/06 00:48:14;;;;;;;12.23;5.17;;;11.60;99.90;;;;;;5012578;28;20510;-53
2023/10/06 00:50:43;;;;;;;15.10;5.33;;;11.60;99.90;;;;;;5009955;28;20910;-52
2023/10/06 00:53:13;;;;;;;13.80;5.30;;;11.60;99.90;;;;;;5011048;28;20459;-52
2023/10/06 00:55:40;;;;;;;49.80;5.80;;;11.60;99.90;;;;;;5015418;28;20474;-51
2023/10/06 00:58:10;;;;;;;98.47;6.57;;;11.60;99.90;;;;;;5012090;28;20448;-53
2023/10/06 01:00:38;;;;;;;81.30;8.03;;;11.60;99.90;;;;;;5012790;28;20885;-52
2023/10/06 01:03:14;;;;;;;16.87;6.57;;;11.60;99.90;;;;;;5011179;28;20964;-53
2023/10/06 01:05:46;;;;;;;40.60;6.87;;;11.60;99.90;;;;;;5012410;28;20488;-53
2023/10/06 01:08:13;;;;;;;23.57;6.57;;;11.60;99.90;;;;;;5011147;28;20467;-53
2023/10/06 01:10:40;;;;;;;24.20;6.30;;;11.60;99.90;;;;;;5009276;28;20464;-53
2023/10/06 01:13:12;;;;;;;15.47;6.67;;;11.60;99.90;;;;;;5010542;28;20456;-52
2023/10/06 01:15:45;;;;;;;6.90;6.20;;;11.60;99.90;;;;;;5011216;28;20563;-52
2023/10/06 01:18:19;;;;;;;8.77;7.07;;;11.60;99.90;;;;;;5011429;28;20464;-52
2023/10/06 01:20:48;;;;;;;7.93;7.13;;;11.60;99.90;;;;;;5011837;28;20930;-53
2023/10/06 01:23:21;;;;;;;8.43;7.30;;;11.60;99.90;;;;;;5007995;28;20470;-53
2023/10/06 01:25:53;;;;;;;13.20;8.77;;;11.60;99.90;;;;;;5011417;28;20494;-53
2023/10/06 01:28:20;;;;;;;17.97;11.07;;;11.70;99.90;;;;;;5011136;28;20490;-53
2023/10/06 01:30:46;;;;;;;19.67;10.67;;;11.70;99.90;;;;;;5012160;28;20447;-52
2023/10/06 01:33:13;;;;;;;15.90;10.70;;;11.70;99.90;;;;;;5009822;28;20521;-51
2023/10/06 01:35:42;;;;;;;17.73;9.97;;;11.70;99.90;;;;;;5011587;28;20475;-52
2023/10/06 01:38:18;;;;;;;14.50;11.13;;;11.70;99.90;;;;;;5011888;28;20812;-52
2023/10/06 01:40:46;;;;;;;20.33;11.00;;;11.70;99.90;;;;;;5007238;28;20451;-52
2023/10/06 01:43:22;;;;;;;15.30;10.27;;;11.70;99.90;;;;;;5010342;28;20498;-52
2023/10/06 01:45:49;;;;;;;17.30;10.70;;;11.80;99.90;;;;;;5014494;28;20492;-53
2023/10/06 01:48:23;;;;;;;12.37;10.40;;;11.80;99.90;;;;;;5013593;28;20464;-54
2023/10/06 01:50:50;;;;;;;17.90;10.70;;;11.80;99.90;;;;;;5011463;28;20459;-53
2023/10/06 01:53:18;;;;;;;21.27;10.57;;;11.80;99.90;;;;;;5014794;28;20513;-51
2023/10/06 01:55:49;;;;;;;14.07;10.20;;;11.80;99.90;;;;;;5013322;28;20452;-52
2023/10/06 01:58:15;;;;;;;19.30;10.87;;;11.90;99.90;;;;;;5020148;28;20447;-54
2023/10/06 02:00:45;;;;;;;17.97;10.47;;;11.90;99.90;;;;;;5019972;28;20555;-53
2023/10/06 02:03:12;;;;;;;18.43;10.20;;;11.90;99.90;;;;;;5014773;28;20466;-53
2023/10/06 02:05:39;;;;;;;28.73;10.80;;;11.90;99.90;;;;;;5012370;28;20487;-52
2023/10/06 02:08:09;;;;;;;18.17;10.20;;;11.90;99.90;;;;;;5015185;28;20946;-52
2023/10/06 02:10:36;;;;;;;20.60;11.37;;;11.90;99.90;;;;;;5019443;28;20469;-52
2023/10/06 02:13:05;;;;;;;17.17;10.80;;;11.90;99.90;;;;;;5017949;28;20533;-53
2023/10/06 02:15:33;;;;;;;16.10;9.90;;;12.00;99.90;;;;;;5017145;28;20468;-52
2023/10/06 02:17:59;;;;;;;34.03;9.87;;;12.00;99.90;;;;;;5015416;28;20519;-53
2023/10/06 02:20:34;;;;;;;19.30;11.13;;;12.00;99.90;;;;;;5015225;28;20978;-52
2023/10/06 02:23:03;;;;;;;14.83;10.80;;;12.00;99.90;;;;;;5009480;28;20469;-52
2023/10/06 02:25:31;;;;;;;20.20;11.10;;;12.10;99.90;;;;;;5015875;28;20494;-52
2023/10/06 02:27:59;;;;;;;17.43;11.03;;;12.10;99.90;;;;;;5014774;28;20452;-53
2023/10/06 02:30:37;;;;;;;21.30;11.97;;;12.10;99.90;;;;;;5009542;28;20964;-52
2023/10/06 02:33:05;;;;;;;14.47;10.70;;;12.10;99.90;;;;;;5004884;28;20462;-53
2023/10/06 02:35:31;;;;;;;14.63;11.70;;;12.10;99.90;;;;;;5012098;28;20475;-53
2023/10/06 02:37:58;;;;;;;18.40;11.03;;;12.20;99.90;;;;;;5012877;28;20886;-52
2023/10/06 02:40:36;;;;;;;18.23;11.10;;;12.20;99.90;;;;;;5015597;28;20478;-52
2023/10/06 02:43:06;;;;;;;15.87;11.30;;;12.20;99.90;;;;;;5013046;28;20557;-53
2023/10/06 02:45:40;;;;;;;22.30;11.03;;;12.30;99.90;;;;;;5014470;28;20880;-54
2023/10/06 02:48:14;;;;;;;18.70;11.57;;;12.30;99.90;;;;;;5013407;28;20513;-53
2023/10/06 02:50:44;;;;;;;16.67;11.60;;;12.30;99.90;;;;;;5010888;28;20517;-53
2023/10/06 02:53:14;;;;;;;18.33;11.60;;;12.30;99.90;;;;;;5010085;28;20467;-53
2023/10/06 02:55:43;;;;;;;20.70;10.50;;;12.30;99.90;;;;;;5013442;28;20487;-55
2023/10/06 02:58:14;;;;;;;17.20;11.10;;;12.40;99.90;;;;;;5011856;28;20542;-52
2023/10/06 03:00:50;;;;;;;16.83;11.40;;;12.40;99.90;;;;;;5011848;28;20961;-52
2023/10/06 03:03:18;;;;;;;12.03;10.50;;;12.40;99.90;;;;;;5014863;28;20494;-53
2023/10/06 03:05:49;;;;;;;12.50;11.20;;;12.40;99.90;;;;;;5011451;28;20571;-53
2023/10/06 03:08:20;;;;;;;22.47;10.53;;;12.40;99.90;;;;;;5012830;28;20452;-53
2023/10/06 03:10:48;;;;;;;14.03;11.77;;;12.50;99.90;;;;;;5014203;28;20487;-52
2023/10/06 03:13:23;;;;;;;15.73;11.33;;;12.50;99.90;;;;;;5012016;28;21023;-51
2023/10/06 03:15:51;;;;;;;18.57;12.57;;;12.50;99.90;;;;;;5013670;28;20921;-51
2023/10/06 03:18:19;;;;;;;15.80;11.83;;;12.50;99.90;;;;;;5014284;28;20452;-52
2023/10/06 03:20:49;;;;;;;21.80;12.03;;;12.50;99.90;;;;;;5012210;28;20605;-51
2023/10/06 03:23:26;;;;;;;16.40;12.50;;;12.50;99.90;;;;;;5013451;28;20563;-51
2023/10/06 03:25:54;;;;;;;18.63;11.90;;;12.60;99.90;;;;;;5015247;28;20533;-50
2023/10/06 03:28:24;;;;;;;14.73;11.00;;;12.60;99.90;;;;;;5019096;28;20454;-52
2023/10/06 03:30:52;;;;;;;16.00;12.03;;;12.60;99.90;;;;;;5014118;28;20444;-51
2023/10/06 03:33:20;;;;;;;20.20;11.63;;;12.60;99.90;;;;;;5011716;28;20970;-51
2023/10/06 03:35:48;;;;;;;13.57;10.60;;;12.60;99.90;;;;;;5014143;28;20498;-51
2023/10/06 03:38:35;;;;;;;27.37;12.90;;;12.60;99.90;;;;;;5011974;28;20464;-52
2023/10/06 03:41:12;;;;;;;18.17;11.10;;;12.60;99.90;;;;;;5017945;28;20466;-52
2023/10/06 03:43:47;;;;;;;17.30;11.97;;;12.60;99.90;;;;;;5013594;28;20464;-51
2023/10/06 03:46:18;;;;;;;18.10;11.70;;;12.70;99.90;;;;;;5014198;28;20482;-52
2023/10/06 03:48:46;;;;;;;14.90;12.00;;;12.70;99.90;;;;;;5011714;28;20519;-52
2023/10/06 03:51:12;;;;;;;14.80;11.80;;;12.70;99.90;;;;;;5013464;28;20459;-52
2023/10/06 03:53:40;;;;;;;15.67;13.73;;;12.70;99.90;;;;;;5011757;28;20479;-51
2023/10/06 03:56:06;;;;;;;27.37;15.63;;;12.70;99.90;;;;;;5013888;28;20494;-51
2023/10/06 03:58:33;;;;;;;17.30;13.97;;;12.70;99.90;;;;;;5013860;28;20447;-51
2023/10/06 04:01:07;;;;;;;20.60;13.00;;;12.70;99.90;;;;;;5012381;28;20517;-51
2023/10/06 04:03:36;;;;;;;18.13;13.33;;;12.80;99.90;;;;;;5013659;28;20472;-51
2023/10/06 04:06:04;;;;;;;20.67;13.37;;;12.80;99.90;;;;;;5013713;28;20485;-52
2023/10/06 04:08:30;;;;;;;19.73;13.80;;;12.80;99.90;;;;;;5010312;28;20487;-52
2023/10/06 04:10:58;;;;;;;17.20;13.40;;;12.80;99.90;;;;;;5012804;28;20836;-52
2023/10/06 04:13:25;;;;;;;21.87;13.73;;;12.80;99.90;;;;;;5013945;28;20452;-51
2023/10/06 04:15:53;;;;;;;15.93;14.23;;;12.80;99.90;;;;;;5008936;28;20460;-51
2023/10/06 04:18:22;;;;;;;17.40;14.23;;;12.80;99.90;;;;;;5012521;28;20459;-51
2023/10/06 04:20:51;;;;;;;16.30;13.70;;;12.80;99.90;;;;;;5013608;28;20456;-51
2023/10/06 04:23:18;;;;;;;18.30;14.20;;;12.80;99.90;;;;;;5017465;28;20836;-51
2023/10/06 04:25:46;;;;;;;20.50;15.43;;;12.80;99.90;;;;;;5014201;28;20553;-51
2023/10/06 04:28:15;;;;;;;17.50;14.00;;;12.70;99.90;;;;;;5012202;28;21019;-51
2023/10/06 04:30:43;;;;;;;17.70;14.13;;;12.70;99.90;;;;;;5007069;28;20460;-50
2023/10/06 04:33:10;;;;;;;16.20;13.17;;;12.70;99.90;;;;;;5008653;28;20811;-51
2023/10/06 04:35:40;;;;;;;15.43;13.83;;;12.60;99.90;;;;;;5008694;28;20937;-51
2023/10/06 04:38:10;;;;;;;17.70;14.40;;;12.60;99.90;;;;;;5013092;28;20447;-52
2023/10/06 04:40:37;;;;;;;16.03;14.40;;;12.60;99.90;;;;;;5011616;28;20459;-51
2023/10/06 04:43:04;;;;;;;22.37;15.20;;;12.60;99.90;;;;;;5012392;28;20456;-51
2023/10/06 04:45:31;;;;;;;23.40;16.37;;;12.60;99.90;;;;;;5013261;28;20487;-51
2023/10/06 04:48:00;;;;;;;22.63;14.70;;;12.60;99.90;;;;;;5010417;28;20467;-52
2023/10/06 04:50:28;;;;;;;23.20;14.97;;;12.60;99.90;;;;;;5009654;28;20459;-51
2023/10/06 04:52:55;;;;;;;25.70;16.90;;;12.60;99.90;;;;;;5011888;28;20591;-51
2023/10/06 04:55:23;;;;;;;24.40;17.33;;;12.60;99.90;;;;;;5013744;28;20953;-51
2023/10/06 04:57:51;;;;;;;25.57;16.77;;;12.60;99.90;;;;;;5013271;28;20467;-50
2023/10/06 05:00:20;;;;;;;17.97;15.63;;;12.60;99.90;;;;;;5012815;28;20534;-52
2023/10/06 05:02:48;;;;;;;18.77;16.23;;;12.60;99.90;;;;;;5017144;28;20455;-51
2023/10/06 05:05:19;;;;;;;19.23;17.13;;;12.50;99.90;;;;;;5017399;28;20489;-52
2023/10/06 05:07:46;;;;;;;19.07;17.13;;;12.60;99.90;;;;;;5018258;28;20485;-51
2023/10/06 05:10:14;;;;;;;19.73;17.73;;;12.50;99.90;;;;;;5016166;28;20475;-52
2023/10/06 05:12:42;;;;;;;26.20;18.17;;;12.50;99.90;;;;;;5017339;28;20448;-52
2023/10/06 05:15:23;;;;;;;32.37;18.50;;;12.60;99.90;;;;;;5011226;28;20530;-51
2023/10/06 05:17:54;;;;;;;22.17;18.97;;;12.50;99.90;;;;;;5011155;28;20827;-52
2023/10/06 05:20:20;;;;;;;24.20;20.07;;;12.60;99.90;;;;;;5012084;28;20455;-51
2023/10/06 05:22:49;;;;;;;24.33;19.17;;;12.60;99.90;;;;;;5011242;28;20439;-51
2023/10/06 05:25:17;;;;;;;22.97;19.23;;;12.50;99.90;;;;;;5010407;28;20483;-51
2023/10/06 05:27:47;;;;;;;31.13;21.27;;;12.60;99.90;;;;;;5009326;28;20468;-51
2023/10/06 05:30:14;;;;;;;25.20;19.23;;;12.50;99.90;;;;;;5006159;28;20473;-51
2023/10/06 05:32:42;;;;;;;36.30;19.43;;;12.50;99.90;;;;;;5007332;28;20460;-51
2023/10/06 05:35:11;;;;;;;21.50;19.27;;;12.50;99.90;;;;;;5012467;28;20526;-51
2023/10/06 05:37:41;;;;;;;24.87;20.27;;;12.50;99.90;;;;;;5008958;28;20467;-52
2023/10/06 05:40:12;;;;;;;25.00;20.50;;;12.50;99.90;;;;;;5012012;28;20455;-52
2023/10/06 05:42:40;;;;;;;23.60;19.77;;;12.50;99.90;;;;;;5003192;28;20451;-52
2023/10/06 05:45:15;;;;;;;24.80;19.87;;;12.50;99.90;;;;;;5005038;28;21004;-56
2023/10/06 05:47:43;;;;;;;32.87;20.47;;;12.50;99.90;;;;;;5008811;28;20458;-53
2023/10/06 05:50:11;;;;;;;32.70;21.13;;;12.50;99.90;;;;;;5010126;28;20451;-56
2023/10/06 05:52:38;;;;;;;27.30;20.03;;;12.50;99.90;;;;;;5005074;28;20440;-51
2023/10/06 05:55:09;;;;;;;24.97;21.13;;;12.40;99.90;;;;;;5008029;28;20479;-52
2023/10/06 05:57:38;;;;;;;29.00;19.73;;;12.40;99.90;;;;;;5010630;28;20974;-51
2023/10/06 06:00:09;;;;;;;27.03;21.10;;;12.40;99.90;;;;;;5010483;28;21015;-50
2023/10/06 06:02:37;;;;;;;25.33;19.33;;;12.50;99.90;;;;;;5010781;28;20464;-52
2023/10/06 06:05:06;;;;;;;23.53;19.90;;;12.40;99.90;;;;;;5010087;28;20483;-52
2023/10/06 06:07:34;;;;;;;27.43;19.73;;;12.40;99.90;;;;;;5009040;28;20992;-52
2023/10/06 06:10:02;;;;;;;30.67;18.47;;;12.40;99.90;;;;;;5013624;28;20463;-52
2023/10/06 06:12:29;;;;;;;34.00;20.80;;;12.50;99.90;;;;;;5009584;28;20463;-52
2023/10/06 06:14:56;;;;;;;28.13;19.20;;;12.50;99.90;;;;;;5008449;28;20518;-55
2023/10/06 06:17:22;;;;;;;26.53;19.13;;;12.50;99.90;;;;;;5010155;28;20452;-52
2023/10/06 06:19:50;;;;;;;24.70;18.23;;;12.60;99.90;;;;;;5007078;28;20468;-53
2023/10/06 06:22:19;;;;;;;29.23;18.20;;;12.60;99.90;;;;;;5010690;28;20465;-51
2023/10/06 06:24:47;;;;;;;25.20;18.63;;;12.70;99.90;;;;;;5010946;28;20509;-52
2023/10/06 06:27:15;;;;;;;22.83;17.87;;;12.70;99.90;;;;;;5013833;28;20484;-52
2023/10/06 06:29:43;;;;;;;32.67;19.30;;;12.70;99.90;;;;;;5009254;28;20463;-52
2023/10/06 06:32:11;;;;;;;28.97;19.13;;;12.70;99.90;;;;;;5012285;28;20981;-52
2023/10/06 06:34:38;;;;;;;27.03;17.70;;;12.80;99.90;;;;;;5014541;28;20474;-52
2023/10/06 06:37:09;;;;;;;26.97;19.60;;;12.80;99.90;;;;;;5016984;28;20467;-52
2023/10/06 06:39:37;;;;;;;22.83;17.90;;;12.80;99.90;;;;;;5003723;28;20468;-52
2023/10/06 06:42:04;;;;;;;28.20;18.13;;;12.80;99.90;;;;;;5006973;28;20474;-52
2023/10/06 06:44:31;;;;;;;21.67;16.70;;;12.90;99.90;;;;;;5009628;28;20891;-52
2023/10/06 06:46:57;;;;;;;24.50;15.73;;;12.90;99.90;;;;;;5013585;28;20479;-52
2023/10/06 06:49:26;;;;;;;19.40;15.93;;;12.90;99.90;;;;;;5011608;28;20459;-52
2023/10/06 06:51:53;;;;;;;25.50;16.37;;;12.90;99.90;;;;;;5009914;28;20465;-52
2023/10/06 06:54:21;;;;;;;30.93;16.20;;;12.90;99.90;;;;;;5014286;28;20965;-52
2023/10/06 06:56:48;;;;;;;20.03;15.07;;;12.90;99.90;;;;;;5012449;28;20884;-52
2023/10/06 06:59:14;;;;;;;41.73;15.83;;;13.00;99.90;;;;;;5013597;28;20463;-53
2023/10/06 07:01:41;;;;;;;24.10;16.30;;;13.00;99.90;;;;;;5008737;28;20499;-52
2023/10/06 07:04:07;;;;;;;31.53;15.47;;;13.10;99.90;;;;;;5012478;28;20517;-52
2023/10/06 07:06:35;;;;;;;26.43;15.63;;;13.10;99.90;;;;;;5007221;28;20514;-53
2023/10/06 07:09:02;;;;;;;30.33;14.97;;;13.10;99.90;;;;;;5013901;28;20475;-52
2023/10/06 07:11:30;;;;;;;19.63;13.90;;;13.10;99.90;;;;;;5013082;28;20459;-52
2023/10/06 07:13:56;;;;;;;25.30;14.00;;;13.10;99.90;;;;;;5012473;28;20483;-52
2023/10/06 07:16:24;;;;;;;23.33;14.10;;;13.10;99.90;;;;;;5014239;28;20810;-54
2023/10/06 07:18:51;;;;;;;24.00;14.37;;;13.20;99.90;;;;;;5016213;28;20466;-54
2023/10/06 07:21:18;;;;;;;20.37;11.80;;;13.30;99.90;;;;;;5029680;28;20448;-55
2023/10/06 07:23:45;;;;;;;20.03;12.93;;;13.30;99.90;;;;;;5026158;28;20477;-53
2023/10/06 07:26:13;;;;;;;19.87;12.20;;;13.30;99.90;;;;;;5027771;28;20494;-53
2023/10/06 07:28:41;;;;;;;22.53;12.80;;;13.30;99.90;;;;;;5029608;28;20463;-53
2023/10/06 07:31:12;;;;;;;17.87;13.00;;;13.40;99.90;;;;;;5028429;28;20456;-54
2023/10/06 07:33:39;;;;;;;19.17;12.33;;;13.40;99.90;;;;;;5009261;28;21001;-52
2023/10/06 07:36:13;;;;;;;20.30;11.37;;;13.40;99.90;;;;;;5020121;28;20513;-53
2023/10/06 07:38:41;;;;;;;19.30;12.13;;;13.50;99.90;;;;;;5011185;28;20459;-53
2023/10/06 07:41:09;;;;;;;20.20;12.43;;;13.60;99.90;;;;;;5015480;28;20449;-53
2023/10/06 07:43:37;;;;;;;23.80;11.33;;;13.60;99.90;;;;;;5015360;28;20499;-53
2023/10/06 07:46:07;;;;;;;14.77;12.37;;;13.70;99.90;;;;;;5008798;28;20498;-52
2023/10/06 07:48:36;;;;;;;23.77;12.20;;;13.70;99.90;;;;;;5014250;28;20486;-52
2023/10/06 07:51:07;;;;;;;27.47;11.30;;;13.70;99.90;;;;;;5007838;28;20471;-53
2023/10/06 07:53:35;;;;;;;16.00;11.20;;;13.80;99.90;;;;;;5008749;28;20484;-54
2023/10/06 07:56:06;;;;;;;20.23;11.93;;;13.80;99.90;;;;;;5017801;28;20494;-52
2023/10/06 07:58:33;;;;;;;21.63;11.73;;;13.90;99.90;;;;;;5006343;28;20468;-53
2023/10/06 08:01:02;;;;;;;17.50;10.93;;;13.90;99.90;;;;;;5012446;28;20467;-53
2023/10/06 08:03:30;;;;;;;13.87;11.37;;;13.90;99.90;;;;;;5008840;28;20482;-53
2023/10/06 08:06:00;;;;;;;31.47;12.23;;;14.00;99.90;;;;;;5004157;28;20464;-53
2023/10/06 08:08:28;;;;;;;16.73;11.13;;;14.00;99.90;;;;;;5009373;28;20524;-53
2023/10/06 08:10:56;;;;;;;18.40;11.43;;;14.10;99.90;;;;;;5011827;28;21012;-52
2023/10/06 08:13:23;;;;;;;21.53;10.60;;;14.10;99.90;;;;;;5008572;28;20538;-52
2023/10/06 08:15:50;;;;;;;16.20;10.43;;;14.20;99.90;;;;;;5003670;28;20500;-53
2023/10/06 08:18:17;;;;;;;18.10;10.20;;;14.20;99.90;;;;;;5011983;28;20490;-51
2023/10/06 08:20:46;;;;;;;18.00;9.27;;;14.30;99.90;;;;;;5006497;28;20861;-52
2023/10/06 08:23:15;;;;;;;21.07;9.53;;;14.40;99.90;;;;;;5007969;28;20471;-53
2023/10/06 08:25:42;;;;;;;22.13;10.80;;;14.40;99.90;;;;;;5011995;28;20470;-52
2023/10/06 08:28:09;;;;;;;16.43;9.10;;;14.40;77.70;;;;;;5007607;28;20859;-51
2023/10/06 08:30:37;;;;;;;22.63;10.40;;;14.50;21.10;;;;;;5007601;28;20514;-52
2023/10/06 08:33:08;;;;;;;14.23;9.40;;;14.50;32.70;;;;;;5010282;28;20460;-52
2023/10/06 08:35:35;;;;;;;13.13;8.30;;;14.60;32.20;;;;;;5008835;28;20463;-52
2023/10/06 08:38:07;;;;;;;21.83;9.47;;;14.60;38.80;;;;;;5011941;28;20460;-52
2023/10/06 08:40:36;;;;;;;15.73;9.20;;;14.80;35.50;;;;;;5003769;28;20464;-52
2023/10/06 08:43:06;;;;;;;31.07;9.63;;;14.80;45.80;;;;;;5013128;28;20510;-52
2023/10/06 08:45:40;;;;;;;16.73;8.30;;;14.80;46.00;;;;;;5010452;28;20923;-52
2023/10/06 08:48:10;;;;;;;20.43;7.57;;;14.90;44.20;;;;;;5011364;28;20853;-52
2023/10/06 08:50:37;;;;;;;13.57;7.97;;;14.80;51.60;;;;;;5005860;28;20897;-52
2023/10/06 08:53:09;;;;;;;15.57;7.77;;;14.90;53.30;;;;;;5010463;28;20938;-52
2023/10/06 08:55:37;;;;;;;16.60;8.57;;;14.80;69.40;;;;;;5005875;28;20491;-52
2023/10/06 08:58:04;;;;;;;19.67;6.87;;;14.80;63.80;;;;;;5010732;28;20462;-52
2023/10/06 09:00:32;;;;;;;17.43;6.70;;;14.80;67.90;;;;;;5001646;28;20491;-52
2023/10/06 09:03:07;;;;;;;13.93;6.40;;;14.90;63.60;;;;;;5003805;28;20483;-52
2023/10/06 09:05:35;;;;;;;11.27;6.20;;;14.90;65.90;;;;;;5006854;28;20475;-53
2023/10/06 09:08:05;;;;;;;16.60;7.20;;;15.00;75.70;;;;;;5003474;28;20597;-52
2023/10/06 09:10:34;;;;;;;16.83;6.70;;;15.00;69.50;;;;;;5010025;28;20470;-53
2023/10/06 09:13:04;;;;;;;16.23;7.40;;;15.10;85.80;;;;;;5008338;28;20468;-52
2023/10/06 09:15:31;;;;;;;20.30;7.80;;;15.20;70.70;;;;;;5004702;28;20490;-52
2023/10/06 09:17:58;;;;;;;13.20;6.87;;;15.20;66.20;;;;;;5008682;28;20468;-52
2023/10/06 09:20:31;;;;;;;13.93;7.80;;;15.30;73.70;;;;;;5010123;28;20521;-53
2023/10/06 09:22:58;;;;;;;13.47;7.30;;;15.40;77.00;;;;;;5008561;28;20491;-52
2023/10/06 09:25:26;;;;;;;16.90;6.20;;;15.40;79.20;;;;;;5010147;28;20492;-53
2023/10/06 09:28:05;;;;;;;12.90;7.37;;;15.40;75.80;;;;;;5011566;28;21069;-52
2023/10/06 09:30:49;;;;;;;18.30;7.07;;;15.50;78.30;;;;;;5004316;28;20915;-52
2023/10/06 09:33:16;;;;;;;8.27;6.07;;;15.50;78.20;;;;;;5005556;28;20475;-52
2023/10/06 09:35:43;;;;;;;16.37;6.57;;;15.50;81.80;;;;;;5007837;28;20456;-53
2023/10/06 09:38:13;;;;;;;12.60;6.13;;;15.60;93.90;;;;;;5007275;28;20449;-52
2023/10/06 09:40:44;;;;;;;12.93;7.10;;;15.60;92.20;;;;;;5004843;28;20518;-52
2023/10/06 09:43:16;;;;;;;15.13;7.63;;;15.70;88.30;;;;;;5004396;28;20463;-53
2023/10/06 09:45:43;;;;;;;19.73;8.37;;;15.70;93.30;;;;;;5008632;28;20469;-52
2023/10/06 09:48:17;;;;;;;10.10;6.33;;;15.80;99.90;;;;;;5013825;28;20891;-53
2023/10/06 09:50:45;;;;;;;9.90;4.73;;;16.00;99.90;;;;;;5014042;28;20469;-53
2023/10/06 09:53:16;;;;;;;10.20;5.47;;;16.00;99.90;;;;;;5008803;28;20456;-54
2023/10/06 09:55:44;;;;;;;12.67;4.70;;;16.10;99.90;;;;;;5010657;28;20785;-55
2023/10/06 09:58:11;;;;;;;13.87;4.77;;;16.10;99.90;;;;;;5006529;28;20498;-55
2023/10/06 10:00:42;;;;;;;9.20;4.23;;;16.20;99.90;;;;;;5007782;28;20487;-53
2023/10/06 10:03:12;;;;;;;11.93;4.40;;;16.10;99.90;;;;;;5009804;28;20463;-50
2023/10/06 10:05:39;;;;;;;12.30;4.47;;;16.10;99.90;;;;;;5005586;28;20459;-50
2023/10/06 10:08:06;;;;;;;5.73;3.97;;;16.10;99.90;;;;;;5011383;28;20519;-49
2023/10/06 10:10:37;;;;;;;14.63;4.43;;;16.20;99.90;;;;;;5012987;28;20874;-50
2023/10/06 10:13:22;;;;;;;11.27;5.00;;;16.10;99.90;;;;;;5013169;28;20491;-50
2023/10/06 10:16:03;;;;;;;7.27;4.13;;;16.10;99.90;;;;;;5009576;28;20825;-50
2023/10/06 10:18:36;;;;;;;13.47;4.87;;;16.10;99.90;;;;;;5012427;28;20460;-49
2023/10/06 10:21:04;;;;;;;9.47;3.70;;;16.10;99.90;;;;;;5014630;28;20463;-49
2023/10/06 10:23:32;;;;;;;8.50;3.87;;;16.10;99.90;;;;;;5015499;28;20507;-52
2023/10/06 10:26:03;;;;;;;7.10;3.73;;;16.10;99.90;;;;;;5014195;28;20491;-52
2023/10/06 10:28:30;;;;;;;11.47;4.57;;;16.10;99.90;;;;;;5006929;28;20908;-54
2023/10/06 10:31:00;;;;;;;7.10;3.53;;;16.20;99.90;;;;;;5010770;28;20562;-51
2023/10/06 10:33:29;;;;;;;10.27;3.70;;;16.20;99.90;;;;;;5018931;28;20459;-50
2023/10/06 10:36:21;;;;;;;11.10;4.13;;;16.20;99.90;;;;;;5011116;28;20514;-49
2023/10/06 10:38:58;;;;;;;6.83;3.47;;;16.20;99.90;;;;;;5008152;28;20435;-51
2023/10/06 10:41:26;;;;;;;7.20;3.63;;;16.20;99.90;;;;;;5016756;28;20490;-50
2023/10/06 10:43:55;;;;;;;9.13;3.40;;;16.30;99.90;;;;;;5015842;28;21040;-50
2023/10/06 10:46:32;;;;;;;6.60;3.53;;;16.20;99.90;;;;;;5020128;28;20455;-50
2023/10/06 10:49:01;;;;;;;7.90;3.50;;;16.20;99.90;;;;;;5016399;28;20478;-50
2023/10/06 10:51:33;;;;;;;6.37;2.90;;;16.30;99.90;;;;;;5015169;28;20495;-51
2023/10/06 10:54:00;;;;;;;6.63;3.80;;;16.30;99.90;;;;;;5016786;28;20509;-51
2023/10/06 10:56:36;;;;;;;9.27;3.97;;;16.40;99.90;;;;;;5014894;28;20469;-51
2023/10/06 10:59:03;;;;;;;10.33;3.80;;;16.50;99.90;;;;;;5012248;28;20517;-50
2023/10/06 11:01:32;;;;;;;8.20;3.57;;;16.50;99.90;;;;;;5014147;28;20451;-50
2023/10/06 11:04:35;;;;;;;6.47;3.50;;;16.60;99.90;;;;;;5019472;28;20486;-50
2023/10/06 11:07:10;;;;;;;6.43;3.40;;;16.60;99.90;;;;;;4935265;29;20472;-52
2023/10/06 11:09:40;;;;;;;9.70;4.17;;;16.70;99.90;;;;;;5002354;28;20533;-53
2023/10/06 11:12:20;;;;;;;8.47;4.30;;;16.70;99.90;;;;;;5015393;28;20558;-53
2023/10/06 11:14:49;;;;;;;10.53;3.40;;;16.70;99.90;;;;;;5013649;28;20896;-53
2023/10/06 11:17:20;;;;;;;6.17;3.40;;;16.90;99.90;;;;;;5012793;28;20571;-53
2023/10/06 11:19:47;;;;;;;9.03;2.87;;;17.00;99.90;;;;;;5021145;28;20520;-52
2023/10/06 11:22:19;;;;;;;4.97;2.80;;;17.10;99.90;;;;;;5011462;28;20443;-52
2023/10/06 11:24:47;;;;;;;9.33;3.73;;;17.10;99.90;;;;;;5013905;28;21033;-53
2023/10/06 11:27:16;;;;;;;5.87;3.00;;;17.20;99.90;;;;;;5007554;28;20443;-52
2023/10/06 11:29:44;;;;;;;5.50;3.10;;;17.20;99.90;;;;;;5017791;28;20822;-52
2023/10/06 11:32:12;;;;;;;11.67;3.53;;;17.20;99.90;;;;;;5013928;28;20444;-50
2023/10/06 11:34:43;;;;;;;6.57;3.20;;;17.00;77.70;;;;;;5014434;28;20506;-50
2023/10/06 11:37:09;;;;;;;7.03;3.17;;;17.00;99.90;;;;;;5012338;28;20539;-50
2023/10/06 11:39:37;;;;;;;12.00;4.20;;;17.00;99.90;;;;;;5019854;28;20463;-50
2023/10/06 11:42:30;;;;;;;12.60;4.60;;;17.00;99.90;;;;;;5013900;28;20448;-51
2023/10/06 11:44:59;;;;;;;7.63;3.83;;;16.90;99.90;;;;;;5011710;28;20470;-52
2023/10/06 11:47:37;;;;;;;8.47;4.23;;;16.80;99.90;;;;;;5013193;28;20487;-51
2023/10/06 11:50:08;;;;;;;9.90;4.33;;;16.70;99.90;;;;;;5014014;28;20545;-50
2023/10/06 11:52:35;;;;;;;3.50;2.63;;;16.70;99.90;;;;;;5014364;28;20440;-50
2023/10/06 11:55:08;;;;;;;9.43;5.00;;;16.60;99.90;;;;;;5014174;28;20996;-51
2023/10/06 11:57:46;;;;;;;4.60;3.90;;;16.60;99.90;;;;;;5013819;28;20527;-50
2023/10/06 12:00:17;;;;;;;11.53;3.07;;;16.60;99.90;;;;;;5013867;28;20439;-51
2023/10/06 12:02:49;;;;;;;6.10;3.53;;;16.60;99.90;;;;;;5011869;28;20569;-51
2023/10/06 12:05:18;;;;;;;6.10;3.30;;;16.70;99.90;;;;;;5009062;28;20550;-51
2023/10/06 12:07:46;;;;;;;5.43;2.80;;;16.70;99.90;;;;;;5010477;28;20567;-51
2023/10/06 12:10:17;;;;;;;8.47;3.27;;;16.70;99.90;;;;;;5012151;28;20448;-51
2023/10/06 12:12:45;;;;;;;8.43;3.13;;;16.70;99.90;;;;;;5013940;28;20448;-51
2023/10/06 12:15:13;;;;;;;12.23;3.43;;;16.70;99.90;;;;;;5010301;28;20495;-51
2023/10/06 12:17:40;;;;;;;5.57;3.23;;;16.70;99.90;;;;;;5013928;28;20456;-51
2023/10/06 12:20:13;;;;;;;4.30;3.13;;;16.80;99.90;;;;;;5013935;28;20466;-50
2023/10/06 12:22:42;;;;;;;5.70;3.30;;;16.80;99.90;;;;;;5018293;28;20559;-51
2023/10/06 12:25:09;;;;;;;6.27;2.93;;;16.80;99.90;;;;;;5016094;28;20490;-51
2023/10/06 12:27:36;;;;;;;6.50;3.00;;;16.80;99.90;;;;;;5017487;28;20455;-50
2023/10/06 12:30:06;;;;;;;6.53;2.97;;;16.80;99.90;;;;;;5019425;28;20802;-50
2023/10/06 12:32:33;;;;;;;8.60;2.73;;;16.80;99.90;;;;;;5020784;28;21027;-50
2023/10/06 12:35:05;;;;;;;7.83;3.30;;;16.80;99.90;;;;;;5012291;28;20491;-55
2023/10/06 12:37:33;;;;;;;10.40;3.00;;;16.80;99.90;;;;;;5011448;28;20491;-54
2023/10/06 12:40:03;;;;;;;9.03;3.20;;;16.70;99.90;;;;;;5010671;28;20840;-54
2023/10/06 12:42:31;;;;;;;10.37;3.13;;;16.80;99.90;;;;;;5019980;28;20972;-53
2023/10/06 12:45:00;;;;;;;8.67;3.00;;;16.80;99.90;;;;;;5015431;28;20514;-52